Time;durP1;ratioP1;P1;durP2;ratioP2;P2;SDS_P1;SDS_P2;PMS_P1;PMS_P2;Temp;Humidity;BMP_temperature;BMP_pressure;BME280_temperature;BME280_humidity;BME280_pressure;Samples;Min_cycle;Max_cycle;Signal;HPM_P1;HPM_P2
2023/02/28 00:00:29;;;;;;;9.27;4.00;;;;;;;2.13;100.00;103190.03;2616435;36;20605;-58
2023/02/28 00:02:57;;;;;;;9.75;3.65;;;;;;;2.18;100.00;103185.53;2616521;36;20436;-52
2023/02/28 00:05:28;;;;;;;6.93;3.40;;;;;;;2.19;100.00;103181.97;2617076;36;20443;-53
2023/02/28 00:08:02;;;;;;;5.95;2.92;;;;;;;2.26;100.00;103184.50;2617059;36;20037;-52
2023/02/28 00:10:34;;;;;;;7.28;3.55;;;;;;;2.29;100.00;103183.59;2618033;31;20035;-58
2023/02/28 00:13:06;;;;;;;4.65;3.10;;;;;;;2.30;100.00;103188.00;2616698;36;20042;-51
2023/02/28 00:15:35;;;;;;;7.97;3.58;;;;;;;2.41;100.00;103177.19;2616450;36;20023;-54
2023/02/28 00:18:03;;;;;;;;;;;;;;;2.39;100.00;103185.19;2615918;36;20620;-51
2023/02/28 00:20:32;;;;;;;5.32;2.78;;;;;;;2.43;100.00;103176.25;2616532;36;19958;-52
2023/02/28 00:23:00;;;;;;;10.17;3.20;;;;;;;2.44;100.00;103172.72;2616768;36;20126;-54
2023/02/28 00:25:29;;;;;;;5.47;2.65;;;;;;;2.42;100.00;103171.84;2616445;31;20306;-53
2023/02/28 00:28:00;;;;;;;5.57;2.60;;;;;;;2.46;100.00;103180.66;2616396;36;20034;-57
2023/02/28 00:30:28;;;;;;;5.45;2.80;;;;;;;2.45;100.00;103177.09;2616756;31;20653;-56
2023/02/28 00:32:57;;;;;;;8.05;3.03;;;;;;;2.45;100.00;103171.78;2614003;36;20045;-56
2023/02/28 00:35:25;;;;;;;8.87;3.00;;;;;;;2.50;100.00;103162.84;2614682;36;20158;-54
2023/02/28 00:37:54;;;;;;;6.88;2.75;;;;;;;2.53;100.00;103168.13;2615396;36;20440;-58
2023/02/28 00:40:23;;;;;;;5.90;2.88;;;;;;;2.51;100.00;103169.94;2615035;36;20555;-51
2023/02/28 00:42:52;;;;;;;7.13;3.08;;;;;;;2.45;100.00;103163.81;2616096;36;20145;-56
2023/02/28 00:45:23;;;;;;;4.95;2.42;;;;;;;2.57;100.00;103169.81;2616349;36;20467;-54
2023/02/28 00:47:51;;;;;;;5.20;2.70;;;;;;;2.52;100.00;103174.31;2614281;36;20111;-53
2023/02/28 00:50:20;;;;;;;7.22;2.92;;;;;;;2.50;100.00;103173.50;2616529;36;20416;-56
2023/02/28 00:52:49;;;;;;;5.75;2.63;;;;;;;2.52;100.00;103174.31;2615844;36;20035;-51
2023/02/28 00:55:18;;;;;;;4.18;2.50;;;;;;;2.47;100.00;103178.88;2615957;36;20035;-52
2023/02/28 00:57:46;;;;;;;5.65;2.53;;;;;;;2.48;100.00;103176.19;2615832;36;20101;-56
2023/02/28 01:00:16;;;;;;;4.27;2.90;;;;;;;2.56;100.00;103173.38;2616168;31;20030;-54
2023/02/28 01:02:47;;;;;;;6.57;3.05;;;;;;;2.59;100.00;103182.19;2615400;31;20306;-58
2023/02/28 01:05:15;;;;;;;7.50;3.20;;;;;;;2.56;100.00;103181.34;2616303;36;20034;-51
2023/02/28 01:07:44;;;;;;;6.47;2.92;;;;;;;2.51;100.00;103175.25;2616466;31;20022;-53
2023/02/28 01:10:13;;;;;;;9.95;3.17;;;;;;;2.53;100.00;103178.75;2617931;36;20026;-53
2023/02/28 01:12:41;;;;;;;4.15;2.63;;;;;;;2.56;100.00;103182.25;2616595;36;20026;-54
2023/02/28 01:15:12;;;;;;;7.50;2.57;;;;;;;2.58;100.00;103177.78;2615991;36;20562;-51
2023/02/28 01:17:41;;;;;;;5.63;3.15;;;;;;;2.60;100.00;103181.25;2615586;36;20038;-56
2023/02/28 01:20:13;;;;;;;5.65;2.75;;;;;;;2.63;100.00;103181.25;2616799;36;20027;-56
2023/02/28 01:22:42;;;;;;;4.68;2.40;;;;;;;2.62;100.00;103171.50;2616841;36;20431;-54
2023/02/28 01:25:11;;;;;;;4.47;3.17;;;;;;;2.66;100.00;103177.63;2616181;36;20421;-50
2023/02/28 01:27:39;;;;;;;8.43;2.92;;;;;;;2.57;100.00;103167.16;2616429;36;20042;-51
2023/02/28 01:30:10;;;;;;;6.10;2.60;;;;;;;2.53;100.00;103170.78;2615968;36;20041;-56
2023/02/28 01:32:39;;;;;;;5.50;2.80;;;;;;;2.45;100.00;103179.75;2615747;36;20306;-51
2023/02/28 01:35:08;;;;;;;5.20;2.97;;;;;;;2.43;100.00;103165.63;2616539;31;20085;-53
2023/02/28 01:37:39;;;;;;;6.20;3.03;;;;;;;2.57;100.00;103173.34;2616134;36;20022;-50
2023/02/28 01:40:09;;;;;;;7.10;2.83;;;;;;;2.60;100.00;103167.09;2617316;36;20061;-50
2023/02/28 01:42:38;;;;;;;4.60;2.70;;;;;;;2.60;100.00;103172.44;2616052;36;20061;-54
2023/02/28 01:45:20;;;;;;;4.95;2.20;;;;;;;2.62;100.00;103159.97;2616400;36;20042;-54
2023/02/28 01:47:52;;;;;;;8.40;2.47;;;;;;;2.70;100.00;103158.06;2615566;36;20038;-50
2023/02/28 01:50:25;;;;;;;7.20;2.80;;;;;;;2.68;100.00;103157.22;2615671;36;20068;-52
2023/02/28 01:52:59;;;;;;;3.55;2.75;;;;;;;2.69;100.00;103150.97;2616985;36;20461;-52
2023/02/28 01:55:30;;;;;;;7.45;2.88;;;;;;;2.60;100.00;103151.16;2616043;36;20042;-53
2023/02/28 01:58:02;;;;;;;9.23;3.00;;;;;;;2.78;100.00;103150.81;2616162;36;20058;-51
2023/02/28 02:00:32;;;;;;;10.07;3.05;;;;;;;2.89;100.00;103152.41;2616332;31;20455;-59
2023/02/28 02:03:03;;;;;;;5.38;2.58;;;;;;;2.87;100.00;103157.75;2615214;36;20031;-55
2023/02/28 02:05:34;;;;;;;9.35;3.05;;;;;;;2.84;100.00;103148.94;2615969;36;20031;-52
2023/02/28 02:08:09;;;;;;;8.13;3.55;;;;;;;2.87;100.00;103143.56;2615915;36;20070;-53
2023/02/28 02:10:42;;;;;;;5.90;2.53;;;;;;;2.86;100.00;103144.50;2615616;36;20053;-53
2023/02/28 02:13:29;;;;;;;6.22;2.58;;;;;;;2.87;100.00;103140.91;2615852;36;20038;-58
2023/02/28 02:16:07;;;;;;;9.48;3.08;;;;;;;2.95;100.00;103141.63;2615885;36;20053;-50
2023/02/28 02:18:43;;;;;;;5.22;2.88;;;;;;;3.04;100.00;103140.59;2615287;36;20428;-53
2023/02/28 02:21:44;;;;;;;5.13;2.88;;;;;;;2.96;100.00;103148.72;2616461;36;20447;-54
2023/02/28 02:24:42;;;;;;;5.53;2.83;;;;;;;2.89;100.00;103141.75;2615583;36;20034;-56
2023/02/28 02:27:28;;;;;;;3.92;2.60;;;;;;;2.92;100.00;103147.03;2614449;31;20034;-52
2023/02/28 02:30:35;;;;;;;8.40;3.20;;;;;;;2.94;100.00;103142.53;2616079;36;20041;-48
2023/02/28 02:33:15;;;;;;;4.60;2.95;;;;;;;2.90;100.00;103138.19;2615164;36;20030;-51
2023/02/28 02:35:55;;;;;;;10.02;3.33;;;;;;;2.84;100.00;103133.84;2615896;36;20035;-53
2023/02/28 02:38:34;;;;;;;9.07;2.67;;;;;;;2.84;100.00;103140.97;2615723;36;20045;-52
2023/02/28 02:41:07;;;;;;;;;;;;;;;2.85;100.00;103143.59;2615529;36;20041;-53
2023/02/28 02:43:39;;;;;;;5.82;2.60;;;;;;;2.89;100.00;103141.75;2614875;36;19950;-54
2023/02/28 02:46:13;;;;;;;5.68;2.78;;;;;;;2.89;100.00;103139.97;2615275;36;20554;-57
2023/02/28 02:48:46;;;;;;;6.25;2.47;;;;;;;2.87;100.00;103139.13;2614003;36;20038;-51
2023/02/28 02:51:20;;;;;;;6.10;3.05;;;;;;;2.89;100.00;103147.94;2614745;36;20039;-52
2023/02/28 02:53:52;;;;;;;8.48;3.33;;;;;;;2.89;100.00;103134.66;2614693;36;20027;-52
2023/02/28 02:56:23;;;;;;;6.50;3.10;;;;;;;2.86;100.00;103139.16;2611116;36;20045;-57
2023/02/28 02:58:56;;;;;;;8.02;3.10;;;;;;;2.79;100.00;103141.91;2615339;36;20034;-50
2023/02/28 03:01:29;;;;;;;5.13;3.30;;;;;;;2.77;100.00;103142.88;2615237;36;20027;-50
2023/02/28 03:04:00;;;;;;;4.45;2.80;;;;;;;2.84;100.00;103143.63;2613047;36;20031;-54
2023/02/28 03:06:31;;;;;;;7.07;3.20;;;;;;;2.79;100.00;103147.25;2613598;36;20038;-51
2023/02/28 03:09:00;;;;;;;5.75;3.08;;;;;;;2.78;100.00;103141.94;2613740;36;20043;-56
2023/02/28 03:11:28;;;;;;;4.00;2.38;;;;;;;2.86;100.00;103144.50;2614722;36;20046;-56
2023/02/28 03:14:24;;;;;;;6.72;3.25;;;;;;;2.88;100.00;103142.66;2613056;36;20069;-57
2023/02/28 03:17:07;;;;;;;6.35;3.28;;;;;;;2.93;100.00;103148.75;2613732;36;20034;-50
2023/02/28 03:19:50;;;;;;;4.85;2.95;;;;;;;2.90;100.00;103144.41;2615415;36;20610;-56
2023/02/28 03:22:49;;;;;;;6.47;3.22;;;;;;;2.75;100.00;103145.56;2614961;36;20038;-57
2023/02/28 03:25:21;;;;;;;;;;;;;;;2.90;100.00;103149.72;2615175;36;20038;-58
2023/02/28 03:28:01;;;;;;;9.05;3.63;;;;;;;2.78;100.00;103145.50;2615392;36;19950;-53
2023/02/28 03:30:35;;;;;;;5.95;3.78;;;;;;;2.80;100.00;103142.81;2614945;36;20041;-55
2023/02/28 03:33:09;;;;;;;8.65;4.20;;;;;;;2.74;100.00;103156.22;2614123;36;20030;-54
2023/02/28 03:35:43;;;;;;;8.82;3.67;;;;;;;2.79;100.00;103163.19;2615200;36;20038;-50
2023/02/28 03:38:26;;;;;;;7.30;3.92;;;;;;;2.83;100.00;103165.78;2615896;36;20030;-49
2023/02/28 03:41:00;;;;;;;9.98;3.60;;;;;;;2.79;100.00;103160.53;2615654;36;20467;-51
2023/02/28 03:43:34;;;;;;;6.03;3.83;;;;;;;2.79;100.00;103157.88;2615845;36;20042;-50
2023/02/28 03:46:08;;;;;;;9.30;4.60;;;;;;;2.82;100.00;103151.63;2618148;36;20034;-53
2023/02/28 03:48:43;;;;;;;9.18;4.57;;;;;;;2.70;100.00;103163.38;2615840;36;20037;-50
2023/02/28 03:51:14;;;;;;;8.68;5.13;;;;;;;2.91;100.00;103151.44;2617543;36;20455;-51
2023/02/28 03:53:51;;;;;;;8.77;4.80;;;;;;;2.79;100.00;103163.19;2616270;36;20026;-51
2023/02/28 03:56:21;;;;;;;7.57;4.55;;;;;;;2.78;100.00;103158.81;2616894;36;20081;-53
2023/02/28 03:58:54;;;;;;;8.52;4.30;;;;;;;2.81;100.00;103160.50;2616460;36;20042;-52
2023/02/28 04:01:28;;;;;;;12.18;4.85;;;;;;;2.82;100.00;103156.09;2616743;36;20166;-51
2023/02/28 04:03:58;;;;;;;9.75;4.47;;;;;;;2.71;100.00;103159.81;2615959;36;20039;-56
2023/02/28 04:06:27;;;;;;;8.60;4.72;;;;;;;2.71;100.00;103165.13;2616520;36;20453;-55
2023/02/28 04:08:59;;;;;;;11.20;5.70;;;;;;;2.74;100.00;103165.06;2616488;36;20065;-51
2023/02/28 04:11:35;;;;;;;10.07;4.95;;;;;;;2.77;100.00;103167.69;2616401;36;20039;-51
2023/02/28 04:14:04;;;;;;;10.57;5.03;;;;;;;2.78;100.00;103164.13;2615889;36;20049;-50
2023/02/28 04:16:33;;;;;;;8.25;4.88;;;;;;;2.64;100.00;103163.50;2614793;36;20675;-50
2023/02/28 04:19:04;;;;;;;9.27;4.97;;;;;;;2.57;100.00;103161.84;2615107;36;20046;-49
2023/02/28 04:21:34;;;;;;;8.43;4.43;;;;;;;2.53;100.00;103161.03;2614889;36;20045;-56
2023/02/28 04:24:05;;;;;;;;;;;;;;;2.57;100.00;103168.03;2615077;36;20038;-50
2023/02/28 04:26:34;;;;;;;8.25;4.63;;;;;;;2.67;100.00;103163.44;2614013;36;19957;-53
2023/02/28 04:29:04;;;;;;;8.90;5.15;;;;;;;2.54;100.00;103161.91;2614867;36;20432;-52
2023/02/28 04:31:32;;;;;;;7.05;4.45;;;;;;;2.54;100.00;103157.47;2613298;36;20030;-50
2023/02/28 04:34:01;;;;;;;7.28;4.28;;;;;;;2.65;100.00;103154.63;2613648;36;20038;-50
2023/02/28 04:36:29;;;;;;;5.03;3.57;;;;;;;2.43;100.00;103155.00;2614863;31;20038;-53
2023/02/28 04:38:58;;;;;;;6.03;3.75;;;;;;;2.31;100.00;103149.00;2613822;36;20076;-56
2023/02/28 04:41:29;;;;;;;5.82;3.80;;;;;;;2.31;100.00;103160.50;2615833;36;20042;-52
2023/02/28 04:43:58;;;;;;;8.55;3.78;;;;;;;2.23;100.00;103157.97;2615974;36;20042;-51
2023/02/28 04:46:27;;;;;;;7.35;3.88;;;;;;;2.20;100.00;103159.81;2631709;36;20472;-51
2023/02/28 04:48:55;;;;;;;6.72;3.55;;;;;;;2.19;100.00;103152.75;2614548;36;20073;-59
2023/02/28 04:51:24;;;;;;;9.82;3.78;;;;;;;2.24;100.00;103149.13;2614309;36;20150;-53
2023/02/28 04:53:53;;;;;;;7.83;3.90;;;;;;;2.23;100.00;103146.50;2614306;36;20041;-52
2023/02/28 04:56:22;;;;;;;6.38;3.50;;;;;;;2.28;100.00;103148.16;2613685;36;20721;-54
2023/02/28 04:58:54;;;;;;;6.72;3.03;;;;;;;2.23;100.00;103151.81;2614886;36;20039;-50
2023/02/28 05:01:25;;;;;;;5.90;2.85;;;;;;;2.34;100.00;103149.84;2614244;31;20130;-51
2023/02/28 05:03:56;;;;;;;5.45;3.38;;;;;;;2.35;100.00;103154.25;2613819;36;20793;-50
2023/02/28 05:06:26;;;;;;;8.02;4.35;;;;;;;2.21;100.00;103151.81;2615097;36;20042;-51
2023/02/28 05:08:56;;;;;;;5.63;3.10;;;;;;;2.15;100.00;103154.59;2615203;36;20598;-49
2023/02/28 05:11:28;;;;;;;5.05;2.80;;;;;;;1.95;100.00;103149.59;2615595;36;20039;-56
2023/02/28 05:13:59;;;;;;;7.10;3.45;;;;;;;2.01;100.00;103148.63;2617508;36;20051;-50
2023/02/28 05:16:28;;;;;;;6.03;3.35;;;;;;;2.01;100.00;103153.94;2615459;31;20507;-52
2023/02/28 05:18:56;;;;;;;5.82;3.20;;;;;;;1.96;100.00;103164.63;2614262;36;20049;-52
2023/02/28 05:21:31;;;;;;;7.10;3.57;;;;;;;1.99;100.00;103164.56;2615259;36;20041;-57
2023/02/28 05:24:01;;;;;;;6.00;3.53;;;;;;;2.01;100.00;103167.22;2614947;36;20307;-54
2023/02/28 05:26:30;;;;;;;6.35;3.38;;;;;;;2.00;100.00;103154.81;2615765;36;20039;-57
2023/02/28 05:29:02;;;;;;;5.13;3.10;;;;;;;1.88;100.00;103159.41;2615272;36;20045;-49
2023/02/28 05:31:30;;;;;;;5.78;3.30;;;;;;;1.83;100.00;103166.59;2614285;36;20041;-53
2023/02/28 05:33:59;;;;;;;6.13;3.40;;;;;;;1.94;100.00;103171.72;2615673;36;20038;-54
2023/02/28 05:36:28;;;;;;;5.20;3.43;;;;;;;1.75;100.00;103164.03;2616432;36;20629;-55
2023/02/28 05:38:56;;;;;;;6.93;3.25;;;;;;;1.70;100.00;103162.34;2616481;36;20287;-50
2023/02/28 05:41:25;;;;;;;5.47;3.10;;;;;;;1.77;100.00;103174.63;2616160;36;20057;-51
2023/02/28 05:43:54;;;;;;;;;;;;;;;1.63;100.00;103182.78;2616220;36;20043;-52
2023/02/28 05:46:25;;;;;;;6.93;3.60;;;;;;;1.54;100.00;103170.50;2615970;36;19943;-54
2023/02/28 05:48:53;;;;;;;4.43;3.50;;;;;;;1.47;100.00;103181.25;2615882;36;20034;-52
2023/02/28 05:51:21;;;;;;;4.93;3.40;;;;;;;1.48;100.00;103189.19;2616423;36;20038;-51
2023/02/28 05:53:50;;;;;;;7.10;4.00;;;;;;;1.40;100.00;103186.63;2616157;31;20038;-50
2023/02/28 05:56:18;;;;;;;6.78;4.03;;;;;;;1.48;100.00;103183.00;2615660;31;20516;-56
2023/02/28 05:58:47;;;;;;;6.30;3.80;;;;;;;1.39;100.00;103184.00;2616189;36;20042;-54
2023/02/28 06:01:34;;;;;;;5.80;3.67;;;;;;;1.38;100.00;103182.22;2615159;36;20042;-55
2023/02/28 06:04:03;;;;;;;7.18;3.72;;;;;;;1.36;100.00;103184.03;2612609;31;20306;-50
2023/02/28 06:06:34;;;;;;;5.22;3.70;;;;;;;1.33;100.00;103179.63;2614049;36;20160;-52
2023/02/28 06:09:03;;;;;;;4.75;3.75;;;;;;;1.54;100.00;103182.91;2611272;36;20042;-56
2023/02/28 06:11:31;;;;;;;;;;;;;;;1.55;100.00;103184.69;2616873;36;20049;-49
2023/02/28 06:14:02;;;;;;;6.90;4.18;;;;;;;1.58;100.00;103179.34;2613430;36;19981;-47
2023/02/28 06:16:36;;;;;;;7.63;4.22;;;;;;;1.53;100.00;103182.03;2615408;36;20543;-57
2023/02/28 06:19:06;;;;;;;7.30;4.22;;;;;;;1.71;100.00;103186.22;2612645;36;20069;-55
2023/02/28 06:21:42;;;;;;;10.00;4.60;;;;;;;1.81;100.00;103180.78;2614532;54;20042;-50
2023/02/28 06:24:10;;;;;;;10.52;4.88;;;;;;;1.54;100.00;103180.25;2613736;36;20038;-49
2023/02/28 06:26:39;;;;;;;11.95;5.55;;;;;;;1.57;100.00;103182.88;2614614;31;20061;-51
2023/02/28 06:29:07;;;;;;;16.10;5.90;;;;;;;1.57;100.00;103182.88;2614509;36;20039;-56
2023/02/28 06:31:39;;;;;;;16.40;5.47;;;;;;;1.67;100.00;103179.19;2611709;36;20555;-50
2023/02/28 06:34:08;;;;;;;12.57;5.95;;;;;;;1.75;100.00;103177.31;2615255;36;20304;-49
2023/02/28 06:36:36;;;;;;;14.20;5.30;;;;;;;1.69;100.00;103182.72;2613807;36;20042;-55
2023/02/28 06:39:04;;;;;;;16.67;5.40;;;;;;;1.77;100.00;103185.25;2614001;36;20055;-49
2023/02/28 06:41:38;;;;;;;17.23;5.25;;;;;;;1.60;100.00;103188.13;2614874;36;20023;-50
2023/02/28 06:44:07;;;;;;;11.38;5.70;;;;;;;1.65;100.00;103178.34;2615255;36;20031;-55
2023/02/28 06:46:38;;;;;;;10.50;5.35;;;;;;;1.58;100.00;103184.63;2615827;36;20141;-50
2023/02/28 06:49:08;;;;;;;12.00;5.07;;;;;;;1.35;100.00;103198.19;2615120;36;20138;-50
2023/02/28 06:51:37;;;;;;;9.55;5.85;;;;;;;1.42;100.00;103199.00;2615312;36;20045;-49
2023/02/28 06:54:08;;;;;;;14.27;6.63;;;;;;;1.61;100.00;103189.03;2614513;31;20085;-54
2023/02/28 06:56:37;;;;;;;16.27;5.90;;;;;;;1.51;100.00;103182.97;2615496;36;20117;-51
2023/02/28 06:59:06;;;;;;;9.03;5.10;;;;;;;1.68;100.00;103191.56;2616724;31;20447;-49
2023/02/28 07:01:38;;;;;;;8.13;5.22;;;;;;;1.73;100.00;103199.47;2615652;36;20054;-52
2023/02/28 07:04:08;;;;;;;13.63;5.78;;;;;;;1.69;100.00;103197.75;2614686;36;20050;-49
2023/02/28 07:06:36;;;;;;;12.88;5.75;;;;;;;1.73;100.00;103205.66;2615989;36;20046;-49
2023/02/28 07:09:06;;;;;;;14.32;6.13;;;;;;;1.73;100.00;103200.34;2614599;36;20034;-49
2023/02/28 07:11:34;;;;;;;15.95;6.10;;;;;;;1.88;100.00;103206.34;2616976;36;20027;-50
2023/02/28 07:14:05;;;;;;;14.30;6.75;;;;;;;1.90;100.00;103184.19;2613363;36;20038;-51
2023/02/28 07:16:33;;;;;;;17.05;6.50;;;;;;;1.88;100.00;103191.28;2616186;36;20098;-51
2023/02/28 07:19:04;;;;;;;11.70;6.07;;;;;;;1.85;100.00;103204.59;2616438;36;20042;-49
2023/02/28 07:21:33;;;;;;;9.93;5.03;;;;;;;1.87;100.00;103201.91;2616865;36;20033;-57
2023/02/28 07:24:02;;;;;;;;;;;;;;;1.94;100.00;103216.88;2616265;36;20038;-55
2023/02/28 07:26:30;;;;;;;12.35;5.90;;;;;;;2.02;100.00;103206.16;2615338;31;19951;-56
2023/02/28 07:28:59;;;;;;;11.55;5.50;;;;;;;1.89;100.00;103200.13;2613750;36;20038;-51
2023/02/28 07:31:28;;;;;;;9.25;5.65;;;;;;;2.08;100.00;103214.03;2615431;36;20086;-52
2023/02/28 07:33:56;;;;;;;9.73;5.30;;;;;;;2.09;100.00;103219.31;2612881;36;20054;-59
2023/02/28 07:36:27;;;;;;;8.20;5.43;;;;;;;2.12;100.00;103212.19;2615393;36;20050;-53
2023/02/28 07:38:55;;;;;;;14.75;6.55;;;;;;;2.39;100.00;103203.78;2614572;31;20046;-53
2023/02/28 07:41:27;;;;;;;9.20;5.40;;;;;;;2.39;100.00;103214.41;2614434;31;20065;-51
2023/02/28 07:43:57;;;;;;;10.45;5.15;;;;;;;2.35;100.00;103204.72;2613513;36;20046;-52
2023/02/28 07:46:26;;;;;;;7.82;4.75;;;;;;;2.38;100.00;103214.44;2615954;36;20901;-53
2023/02/28 07:48:59;;;;;;;6.93;4.68;;;;;;;2.41;100.00;103219.72;2615513;36;20452;-57
2023/02/28 07:51:30;;;;;;;8.52;4.80;;;;;;;2.39;100.00;103208.25;2615814;36;20033;-51
2023/02/28 07:53:59;;;;;;;13.27;5.00;;;;;;;2.44;100.00;103204.59;2615126;36;20023;-51
2023/02/28 07:56:28;;;;;;;13.50;5.75;;;;;;;2.68;100.00;103201.53;2614380;36;20053;-53
2023/02/28 07:58:56;;;;;;;11.27;6.00;;;;;;;2.70;100.00;103211.25;2615188;36;20042;-52
2023/02/28 08:01:32;;;;;;;13.35;5.93;;;;;;;2.54;100.00;103217.72;2613478;36;20543;-54
2023/02/28 08:04:00;;;;;;;9.90;4.88;;;;;;;2.70;100.00;103221.88;2613356;36;20034;-50
2023/02/28 08:06:31;;;;;;;11.03;5.73;;;;;;;2.87;100.00;103218.03;2614913;36;20034;-53
2023/02/28 08:08:59;;;;;;;10.40;6.07;;;;;;;2.78;100.00;103219.06;2614960;36;20046;-53
2023/02/28 08:11:28;;;;;;;7.88;5.55;;;;;;;2.71;100.00;103220.97;2615190;36;20034;-49
2023/02/28 08:13:57;;;;;;;10.57;5.38;;;;;;;2.77;100.00;103226.19;2615321;36;20038;-50
2023/02/28 08:16:26;;;;;;;8.32;5.15;;;;;;;2.88;100.00;103227.78;2614382;36;20034;-54
2023/02/28 08:18:55;;;;;;;7.55;4.65;;;;;;;3.01;100.00;103223.13;2616161;36;20046;-50
2023/02/28 08:21:24;;;;;;;8.10;5.80;;;;;;;3.12;100.00;103230.00;2616812;36;20155;-54
2023/02/28 08:23:56;;;;;;;9.80;5.40;;;;;;;3.16;100.00;103230.78;2615986;36;20594;-50
2023/02/28 08:26:25;;;;;;;8.32;5.68;;;;;;;3.05;100.00;103216.81;2615630;36;20161;-58
2023/02/28 08:28:53;;;;;;;8.10;5.35;;;;;;;3.24;100.00;103210.25;2616620;31;20107;-53
2023/02/28 08:31:22;;;;;;;7.10;5.28;;;;;;;3.38;100.00;103209.09;2616493;36;20496;-50
2023/02/28 08:33:52;;;;;;;6.85;5.03;;;;;;;3.48;100.00;103218.63;2615430;36;20069;-51
2023/02/28 08:36:22;;;;;;;9.65;5.35;;;;;;;3.32;100.00;103221.59;2616517;31;20022;-53
2023/02/28 08:38:50;;;;;;;7.35;4.95;;;;;;;3.38;100.00;103222.41;2616400;31;20034;-54
2023/02/28 08:41:21;;;;;;;7.85;5.20;;;;;;;3.48;100.00;103219.50;2616406;36;20038;-56
2023/02/28 08:43:50;;;;;;;7.28;4.43;;;;;;;3.41;100.00;103238.31;2615789;36;20069;-53
2023/02/28 08:46:24;;;;;;;8.75;4.13;;;;;;;3.29;100.00;103228.78;2616098;36;20570;-52
2023/02/28 08:48:55;;;;;;;5.88;4.28;;;;;;;3.57;100.00;103231.75;2615637;36;20042;-57
2023/02/28 08:51:26;;;;;;;11.55;5.43;;;;;;;3.74;100.00;103231.41;2616747;36;20026;-54
2023/02/28 08:53:55;;;;;;;4.90;4.10;;;;;;;3.70;100.00;103226.19;2615681;36;20031;-52
2023/02/28 08:56:26;;;;;;;5.20;3.53;;;;;;;3.65;100.00;103229.81;2615723;36;20043;-58
2023/02/28 08:58:56;;;;;;;6.85;3.92;;;;;;;3.81;100.00;103230.34;2615526;36;21248;-51
2023/02/28 09:01:27;;;;;;;5.97;3.45;;;;;;;3.89;100.00;103231.94;2616225;36;20137;-56
2023/02/28 09:03:56;;;;;;;4.43;3.33;;;;;;;3.80;100.00;103233.94;2615740;36;20077;-52
2023/02/28 09:06:27;;;;;;;5.93;3.70;;;;;;;3.83;100.00;103222.34;2614456;36;20038;-56
2023/02/28 09:09:00;;;;;;;6.53;3.47;;;;;;;3.68;100.00;103228.84;2610838;36;20130;-50
2023/02/28 09:11:31;;;;;;;4.75;3.45;;;;;;;3.73;100.00;103226.13;2615572;36;20033;-55
2023/02/28 09:14:02;;;;;;;4.85;3.45;;;;;;;3.72;100.00;103230.53;2616058;31;20038;-53
2023/02/28 09:16:31;;;;;;;5.95;3.08;;;;;;;3.85;100.00;103236.47;2616479;31;20535;-51
2023/02/28 09:19:05;;;;;;;5.03;3.58;;;;;;;3.87;100.00;103224.00;2616347;31;20058;-53
2023/02/28 09:21:33;;;;;;;6.10;3.30;;;;;;;4.00;100.00;103235.25;2616192;36;20177;-53
2023/02/28 09:24:02;;;;;;;4.80;3.20;;;;;;;4.23;100.00;103232.06;2615196;36;20050;-51
2023/02/28 09:26:33;;;;;;;6.05;3.20;;;;;;;4.61;100.00;103232.03;2614137;36;20045;-50
2023/02/28 09:29:03;;;;;;;5.63;3.10;;;;;;;4.55;100.00;103233.09;2616110;36;20575;-50
2023/02/28 09:31:32;;;;;;;4.15;2.95;;;;;;;4.85;100.00;103226.06;2616295;36;20037;-54
2023/02/28 09:34:01;;;;;;;6.37;2.80;;;;;;;4.80;100.00;103221.75;2615415;36;20042;-51
2023/02/28 09:36:30;;;;;;;5.70;2.50;;;;;;;4.39;100.00;103222.78;2616170;36;20129;-51
2023/02/28 09:38:59;;;;;;;7.22;2.63;;;;;;;4.32;100.00;103222.97;2615034;36;20033;-54
2023/02/28 09:41:32;;;;;;;3.75;2.65;;;;;;;4.43;100.00;103218.28;2615144;31;20046;-53
2023/02/28 09:44:08;;;;;;;5.25;2.80;;;;;;;4.60;100.00;103220.50;2614985;36;20578;-54
2023/02/28 09:46:42;;;;;;;3.28;2.42;;;;;;;4.76;100.00;103215.66;2615952;31;20030;-55
2023/02/28 09:49:15;;;;;;;3.53;2.53;;;;;;;4.76;100.00;103220.13;2614244;36;20470;-51
2023/02/28 09:51:52;;;;;;;4.78;2.75;;;;;;;4.77;100.00;103233.41;2615622;36;20672;-49
2023/02/28 09:54:23;;;;;;;3.25;2.35;;;;;;;5.02;100.00;103238.06;2616072;36;20451;-55
2023/02/28 09:56:55;;;;;;;3.20;2.20;;;;;;;4.78;100.00;103234.28;2616213;36;20034;-50
2023/02/28 09:59:40;;;;;;;3.60;2.67;;;;;;;4.81;100.00;103240.41;2616105;36;20051;-54
2023/02/28 10:02:24;;;;;;;4.45;2.60;;;;;;;5.06;100.00;103234.41;2615391;36;20965;-56
2023/02/28 10:04:55;;;;;;;4.35;2.40;;;;;;;5.06;100.00;103239.75;2612984;36;20045;-52
2023/02/28 10:07:43;;;;;;;3.83;2.13;;;;;;;5.09;100.00;103229.00;2614548;36;20126;-50
2023/02/28 10:10:22;;;;;;;5.53;2.40;;;;;;;5.17;100.00;103232.34;2613574;36;20037;-54
2023/02/28 10:12:57;;;;;;;2.55;1.92;;;;;;;5.14;100.00;103224.41;2614081;36;20539;-52
2023/02/28 10:15:33;;;;;;;2.50;1.80;;;;;;;5.28;100.00;103226.69;2614541;36;20049;-53
2023/02/28 10:18:06;;;;;;;3.55;1.70;;;;;;;5.38;100.00;103224.63;2614846;36;20037;-51
2023/02/28 10:20:37;;;;;;;2.60;1.70;;;;;;;5.51;100.00;103231.38;2615037;36;20045;-55
2023/02/28 10:23:12;;;;;;;2.83;1.73;;;;;;;5.80;100.00;103221.63;2615453;36;20443;-51
2023/02/28 10:25:41;;;;;;;3.58;1.67;;;;;;;5.42;100.00;103213.81;2613144;36;20046;-52
2023/02/28 10:28:14;;;;;;;2.80;1.63;;;;;;;5.24;100.00;103228.56;2615721;36;20034;-52
2023/02/28 10:30:48;;;;;;;3.67;1.58;;;;;;;5.15;99.89;103219.94;2614387;36;20037;-51
2023/02/28 10:33:22;;;;;;;2.80;1.23;;;;;;;5.04;99.68;103218.44;2613551;36;20034;-56
2023/02/28 10:35:52;;;;;;;1.90;1.13;;;;;;;5.02;99.40;103220.28;2615016;36;20042;-51
2023/02/28 10:38:24;;;;;;;1.50;1.10;;;;;;;5.08;100.00;103221.91;2614503;31;20435;-53
2023/02/28 10:40:53;;;;;;;2.15;1.35;;;;;;;5.15;100.00;103218.13;2615195;36;20034;-55
2023/02/28 10:43:23;;;;;;;;;;;;;;;5.20;90.49;103220.72;2614774;36;20034;-56
2023/02/28 10:46:15;;;;;;;3.05;1.35;;;;;;;5.34;90.75;103220.28;2615233;36;20440;-52
2023/02/28 10:48:48;;;;;;;1.92;1.48;;;;;;;5.12;90.71;103206.69;2614664;36;20188;-54
2023/02/28 10:51:18;;;;;;;1.70;1.13;;;;;;;5.29;90.94;103204.41;2615094;36;20567;-56
2023/02/28 10:53:51;;;;;;;2.53;1.63;;;;;;;5.02;91.79;103206.03;2615721;31;20026;-53
2023/02/28 10:56:22;;;;;;;3.72;1.48;;;;;;;5.06;100.00;103202.38;2615878;36;20034;-55
2023/02/28 10:58:54;;;;;;;2.70;1.77;;;;;;;5.43;87.62;103196.00;2615417;36;20122;-54
2023/02/28 11:01:28;;;;;;;2.17;1.58;;;;;;;5.33;100.00;103191.84;2616134;36;20030;-54
2023/02/28 11:03:57;;;;;;;2.65;1.67;;;;;;;5.59;99.12;103191.06;2613838;36;20046;-60
2023/02/28 11:06:28;;;;;;;1.60;1.10;;;;;;;5.42;100.00;103195.13;2615910;36;20034;-56
2023/02/28 11:08:59;;;;;;;3.35;1.40;;;;;;;5.20;100.00;103188.66;2615989;36;20038;-55
2023/02/28 11:11:31;;;;;;;2.28;1.40;;;;;;;5.19;100.00;103174.41;2616513;36;20043;-57
2023/02/28 11:14:06;;;;;;;3.28;1.20;;;;;;;5.47;100.00;103170.94;2616019;36;20041;-57
2023/02/28 11:16:40;;;;;;;3.42;1.60;;;;;;;5.27;100.00;103179.56;2615729;31;20031;-53
2023/02/28 11:19:21;;;;;;;2.47;1.50;;;;;;;5.31;96.30;103175.00;2615375;36;20045;-54
2023/02/28 11:21:55;;;;;;;2.10;1.45;;;;;;;5.57;95.08;103175.09;2616192;36;20031;-56
2023/02/28 11:24:27;;;;;;;3.28;2.25;;;;;;;5.72;90.27;103181.75;2615374;36;21871;-54
2023/02/28 11:26:55;;;;;;;3.33;1.60;;;;;;;5.55;88.52;103171.59;2613030;36;20046;-50
2023/02/28 11:29:27;;;;;;;3.73;1.60;;;;;;;5.71;99.73;103173.78;2614350;36;20034;-54
2023/02/28 11:32:22;;;;;;;2.00;1.38;;;;;;;5.59;87.54;103173.28;2611570;36;20039;-51
2023/02/28 11:35:06;;;;;;;2.65;1.55;;;;;;;5.71;74.61;103160.44;2612271;36;20027;-50
2023/02/28 11:37:35;;;;;;;4.47;1.33;;;;;;;5.70;86.79;103164.03;2615880;36;20041;-52
2023/02/28 11:40:06;;;;;;;2.08;1.45;;;;;;;5.85;91.43;103160.88;2615377;36;20365;-55
2023/02/28 11:42:48;;;;;;;2.40;1.40;;;;;;;5.96;83.90;103164.09;2616314;36;20628;-51
2023/02/28 11:45:30;;;;;;;3.30;1.50;;;;;;;5.97;73.61;103155.16;2616675;36;20026;-51
2023/02/28 11:48:07;;;;;;;3.83;1.50;;;;;;;6.29;76.78;103160.41;2610898;36;20042;-58